Terminal Aerodrome Forecast
Issued by NWS Chicago, IL

Home | Current Version | Previous Version | Graphics & Text | Print | Product List | Glossary On
Versions: 1 2 3 4 5 6 7 8 9 10 11 12 13 14 15 16 17 18 19 20 21 22 23 24 25 26 27
251
FTUS43 KLOT 040919 AAA
TAFRFD
TAF AMD
KRFD 040919Z 0409/0506 15005KT P6SM -SN SCT025 OVC050
     FM041200 16006KT 2SM -SN BR OVC015
     FM041400 16007KT 1SM -SN BR OVC005
      TEMPO 0416/0419 1/2SM SN OVC003
     FM041900 18008KT 1 1/2SM -SN BR OVC005
     FM042300 21007KT 6SM -SN BR OVC008
     FM050100 24008KT P6SM OVC012=

USA.gov is the U.S. government's official web portal to all federal, state and local government web resources and services.